sensor_id;sensor_type;location;lat;lon;timestamp;temperature;humidity
49855;DHT22;35752;52.164;21.244;2022-10-31T00:00:22;8.10;99.90
49855;DHT22;35752;52.164;21.244;2022-10-31T00:02:48;8.00;99.90
49855;DHT22;35752;52.164;21.244;2022-10-31T00:05:13;8.00;99.90
49855;DHT22;35752;52.164;21.244;2022-10-31T00:07:39;7.90;99.90
49855;DHT22;35752;52.164;21.244;2022-10-31T00:10:04;7.90;99.90
49855;DHT22;35752;52.164;21.244;2022-10-31T00:12:30;7.70;99.90
49855;DHT22;35752;52.164;21.244;2022-10-31T00:14:56;7.80;99.90
49855;DHT22;35752;52.164;21.244;2022-10-31T00:17:21;7.80;99.90
49855;DHT22;35752;52.164;21.244;2022-10-31T00:19:47;7.80;99.90
49855;DHT22;35752;52.164;21.244;2022-10-31T00:22:12;7.80;99.90
49855;DHT22;35752;52.164;21.244;2022-10-31T00:24:38;7.70;99.90
49855;DHT22;35752;52.164;21.244;2022-10-31T00:27:03;7.80;99.90
49855;DHT22;35752;52.164;21.244;2022-10-31T00:29:29;7.70;99.90
49855;DHT22;35752;52.164;21.244;2022-10-31T00:31:54;7.70;99.90
49855;DHT22;35752;52.164;21.244;2022-10-31T00:34:20;7.60;99.90
49855;DHT22;35752;52.164;21.244;2022-10-31T00:36:45;7.40;99.90
49855;DHT22;35752;52.164;21.244;2022-10-31T00:39:11;7.50;99.90
49855;DHT22;35752;52.164;21.244;2022-10-31T00:41:36;7.60;99.90
49855;DHT22;35752;52.164;21.244;2022-10-31T00:44:02;7.60;99.90
49855;DHT22;35752;52.164;21.244;2022-10-31T00:46:27;7.60;99.90
49855;DHT22;35752;52.164;21.244;2022-10-31T00:48:53;7.50;99.90
49855;DHT22;35752;52.164;21.244;2022-10-31T00:51:18;7.60;99.90
49855;DHT22;35752;52.164;21.244;2022-10-31T00:53:44;7.60;99.90
49855;DHT22;35752;52.164;21.244;2022-10-31T00:56:09;7.60;99.90
49855;DHT22;35752;52.164;21.244;2022-10-31T00:58:35;7.60;99.90
49855;DHT22;35752;52.164;21.244;2022-10-31T01:01:00;7.60;99.90
49855;DHT22;35752;52.164;21.244;2022-10-31T01:03:27;7.50;99.90
49855;DHT22;35752;52.164;21.244;2022-10-31T01:08:24;7.40;99.90
49855;DHT22;35752;52.164;21.244;2022-10-31T01:11:00;7.40;99.90
49855;DHT22;35752;52.164;21.244;2022-10-31T01:13:26;7.40;99.90
49855;DHT22;35752;52.164;21.244;2022-10-31T01:15:55;7.40;99.90
49855;DHT22;35752;52.164;21.244;2022-10-31T01:18:21;7.40;99.90
49855;DHT22;35752;52.164;21.244;2022-10-31T01:20:46;7.30;99.90
49855;DHT22;35752;52.164;21.244;2022-10-31T01:23:12;7.40;99.90
49855;DHT22;35752;52.164;21.244;2022-10-31T01:25:37;7.30;99.90
49855;DHT22;35752;52.164;21.244;2022-10-31T01:28:03;7.30;99.90
49855;DHT22;35752;52.164;21.244;2022-10-31T01:30:28;7.30;99.90
49855;DHT22;35752;52.164;21.244;2022-10-31T01:32:54;7.30;99.90
49855;DHT22;35752;52.164;21.244;2022-10-31T01:35:19;7.20;99.90
49855;DHT22;35752;52.164;21.244;2022-10-31T01:37:45;7.20;99.90
49855;DHT22;35752;52.164;21.244;2022-10-31T01:40:10;7.20;99.90
49855;DHT22;35752;52.164;21.244;2022-10-31T01:42:36;7.20;99.90
49855;DHT22;35752;52.164;21.244;2022-10-31T01:45:02;7.10;99.90
49855;DHT22;35752;52.164;21.244;2022-10-31T01:47:46;7.10;99.90
49855;DHT22;35752;52.164;21.244;2022-10-31T01:50:13;7.10;99.90
49855;DHT22;35752;52.164;21.244;2022-10-31T01:52:41;7.00;99.90
49855;DHT22;35752;52.164;21.244;2022-10-31T01:55:24;7.00;99.90
49855;DHT22;35752;52.164;21.244;2022-10-31T01:57:51;7.00;99.90
49855;DHT22;35752;52.164;21.244;2022-10-31T02:00:19;7.00;99.90
49855;DHT22;35752;52.164;21.244;2022-10-31T02:02:45;7.00;99.90
49855;DHT22;35752;52.164;21.244;2022-10-31T02:05:16;6.90;99.90
49855;DHT22;35752;52.164;21.244;2022-10-31T02:07:44;6.80;99.90
49855;DHT22;35752;52.164;21.244;2022-10-31T02:10:11;6.80;99.90
49855;DHT22;35752;52.164;21.244;2022-10-31T02:12:36;6.90;99.90
49855;DHT22;35752;52.164;21.244;2022-10-31T02:15:03;6.90;99.90
49855;DHT22;35752;52.164;21.244;2022-10-31T02:17:29;6.90;99.90
49855;DHT22;35752;52.164;21.244;2022-10-31T02:22:33;6.90;99.90
49855;DHT22;35752;52.164;21.244;2022-10-31T02:30:18;6.90;99.90
49855;DHT22;35752;52.164;21.244;2022-10-31T02:37:47;6.70;99.90
49855;DHT22;35752;52.164;21.244;2022-10-31T02:40:21;6.60;99.90
49855;DHT22;35752;52.164;21.244;2022-10-31T02:47:54;6.60;99.90
49855;DHT22;35752;52.164;21.244;2022-10-31T02:50:24;6.50;99.90
49855;DHT22;35752;52.164;21.244;2022-10-31T02:52:52;6.50;99.90
49855;DHT22;35752;52.164;21.244;2022-10-31T03:00:26;6.50;99.90
49855;DHT22;35752;52.164;21.244;2022-10-31T03:10:24;6.40;99.90
49855;DHT22;35752;52.164;21.244;2022-10-31T03:12:58;6.40;99.90
49855;DHT22;35752;52.164;21.244;2022-10-31T03:15:49;6.40;99.90
49855;DHT22;35752;52.164;21.244;2022-10-31T03:18:17;6.40;99.90
49855;DHT22;35752;52.164;21.244;2022-10-31T03:20:50;6.40;99.90
49855;DHT22;35752;52.164;21.244;2022-10-31T03:23:17;6.30;99.90
49855;DHT22;35752;52.164;21.244;2022-10-31T03:25:44;6.40;99.90
49855;DHT22;35752;52.164;21.244;2022-10-31T03:28:11;6.30;99.90
49855;DHT22;35752;52.164;21.244;2022-10-31T03:30:38;6.30;99.90
49855;DHT22;35752;52.164;21.244;2022-10-31T03:33:06;6.30;99.90
49855;DHT22;35752;52.164;21.244;2022-10-31T03:35:34;6.30;99.90
49855;DHT22;35752;52.164;21.244;2022-10-31T03:38:00;6.40;99.90
49855;DHT22;35752;52.164;21.244;2022-10-31T03:40:27;6.40;99.90
49855;DHT22;35752;52.164;21.244;2022-10-31T03:42:54;6.30;99.90
49855;DHT22;35752;52.164;21.244;2022-10-31T03:45:24;6.20;99.90
49855;DHT22;35752;52.164;21.244;2022-10-31T03:47:52;6.30;99.90
49855;DHT22;35752;52.164;21.244;2022-10-31T03:50:18;6.30;99.90
49855;DHT22;35752;52.164;21.244;2022-10-31T03:55:16;6.40;99.90
49855;DHT22;35752;52.164;21.244;2022-10-31T04:00:23;6.40;99.90
49855;DHT22;35752;52.164;21.244;2022-10-31T04:02:51;6.40;99.90
49855;DHT22;35752;52.164;21.244;2022-10-31T04:05:19;6.40;99.90
49855;DHT22;35752;52.164;21.244;2022-10-31T04:07:45;6.40;99.90
49855;DHT22;35752;52.164;21.244;2022-10-31T04:10:13;6.40;99.90
49855;DHT22;35752;52.164;21.244;2022-10-31T04:12:39;6.40;99.90
49855;DHT22;35752;52.164;21.244;2022-10-31T04:15:05;6.40;99.90
49855;DHT22;35752;52.164;21.244;2022-10-31T04:17:32;6.30;99.90
49855;DHT22;35752;52.164;21.244;2022-10-31T04:19:59;6.30;99.90
49855;DHT22;35752;52.164;21.244;2022-10-31T04:22:25;6.20;99.90
49855;DHT22;35752;52.164;21.244;2022-10-31T04:24:51;6.20;99.90
49855;DHT22;35752;52.164;21.244;2022-10-31T04:27:16;6.30;99.90
49855;DHT22;35752;52.164;21.244;2022-10-31T04:29:42;6.30;99.90
49855;DHT22;35752;52.164;21.244;2022-10-31T04:32:07;6.30;99.90
49855;DHT22;35752;52.164;21.244;2022-10-31T04:34:33;6.30;99.90
49855;DHT22;35752;52.164;21.244;2022-10-31T04:36:58;6.30;99.90
49855;DHT22;35752;52.164;21.244;2022-10-31T04:39:24;6.30;99.90
49855;DHT22;35752;52.164;21.244;2022-10-31T04:41:49;6.30;99.90
49855;DHT22;35752;52.164;21.244;2022-10-31T04:44:15;6.30;99.90
49855;DHT22;35752;52.164;21.244;2022-10-31T04:46:41;6.30;99.90
49855;DHT22;35752;52.164;21.244;2022-10-31T04:49:06;6.30;99.90
49855;DHT22;35752;52.164;21.244;2022-10-31T04:51:32;6.30;99.90
49855;DHT22;35752;52.164;21.244;2022-10-31T04:53:57;6.30;99.90
49855;DHT22;35752;52.164;21.244;2022-10-31T04:56:23;6.30;99.90
49855;DHT22;35752;52.164;21.244;2022-10-31T04:58:48;6.30;99.90
49855;DHT22;35752;52.164;21.244;2022-10-31T05:01:14;6.30;99.90
49855;DHT22;35752;52.164;21.244;2022-10-31T05:03:39;6.20;99.90
49855;DHT22;35752;52.164;21.244;2022-10-31T05:06:05;6.20;99.90
49855;DHT22;35752;52.164;21.244;2022-10-31T05:08:31;6.20;99.90
49855;DHT22;35752;52.164;21.244;2022-10-31T05:10:59;6.20;99.90
49855;DHT22;35752;52.164;21.244;2022-10-31T05:13:24;6.20;99.90
49855;DHT22;35752;52.164;21.244;2022-10-31T05:15:50;6.20;99.90
49855;DHT22;35752;52.164;21.244;2022-10-31T05:18:15;6.10;99.90
49855;DHT22;35752;52.164;21.244;2022-10-31T05:20:41;6.10;99.90
49855;DHT22;35752;52.164;21.244;2022-10-31T05:23:06;6.10;99.90
49855;DHT22;35752;52.164;21.244;2022-10-31T05:25:32;6.10;99.90
49855;DHT22;35752;52.164;21.244;2022-10-31T05:27:57;6.10;99.90
49855;DHT22;35752;52.164;21.244;2022-10-31T05:30:24;6.00;99.90
49855;DHT22;35752;52.164;21.244;2022-10-31T05:32:50;5.90;99.90
49855;DHT22;35752;52.164;21.244;2022-10-31T05:35:20;5.90;99.90
49855;DHT22;35752;52.164;21.244;2022-10-31T05:37:46;6.00;99.90
49855;DHT22;35752;52.164;21.244;2022-10-31T05:40:12;6.00;99.90
49855;DHT22;35752;52.164;21.244;2022-10-31T05:42:38;6.10;99.90
49855;DHT22;35752;52.164;21.244;2022-10-31T05:45:04;6.10;99.90
49855;DHT22;35752;52.164;21.244;2022-10-31T05:47:29;6.10;99.90
49855;DHT22;35752;52.164;21.244;2022-10-31T05:49:55;6.10;99.90
49855;DHT22;35752;52.164;21.244;2022-10-31T05:52:20;6.10;99.90
49855;DHT22;35752;52.164;21.244;2022-10-31T05:54:46;6.10;99.90
49855;DHT22;35752;52.164;21.244;2022-10-31T05:57:11;6.00;99.90
49855;DHT22;35752;52.164;21.244;2022-10-31T05:59:37;6.00;99.90
49855;DHT22;35752;52.164;21.244;2022-10-31T06:02:02;6.00;99.90
49855;DHT22;35752;52.164;21.244;2022-10-31T06:04:28;6.00;99.90
49855;DHT22;35752;52.164;21.244;2022-10-31T06:06:53;6.10;99.90
49855;DHT22;35752;52.164;21.244;2022-10-31T06:09:19;6.10;99.90
49855;DHT22;35752;52.164;21.244;2022-10-31T06:11:44;6.10;99.90
49855;DHT22;35752;52.164;21.244;2022-10-31T06:14:10;6.20;99.90
49855;DHT22;35752;52.164;21.244;2022-10-31T06:16:35;6.20;99.90
49855;DHT22;35752;52.164;21.244;2022-10-31T06:19:01;6.30;99.90
49855;DHT22;35752;52.164;21.244;2022-10-31T06:21:27;6.30;99.90
49855;DHT22;35752;52.164;21.244;2022-10-31T06:23:52;6.40;99.90
49855;DHT22;35752;52.164;21.244;2022-10-31T06:26:18;6.40;99.90
49855;DHT22;35752;52.164;21.244;2022-10-31T06:28:43;6.40;99.90
49855;DHT22;35752;52.164;21.244;2022-10-31T06:31:09;6.60;99.90
49855;DHT22;35752;52.164;21.244;2022-10-31T06:33:34;6.60;99.90
49855;DHT22;35752;52.164;21.244;2022-10-31T06:36:00;6.60;99.90
49855;DHT22;35752;52.164;21.244;2022-10-31T06:38:26;6.60;99.90
49855;DHT22;35752;52.164;21.244;2022-10-31T06:40:52;6.70;99.90
49855;DHT22;35752;52.164;21.244;2022-10-31T06:43:18;6.80;99.90
49855;DHT22;35752;52.164;21.244;2022-10-31T06:45:43;6.80;99.90
49855;DHT22;35752;52.164;21.244;2022-10-31T06:48:09;6.80;99.90
49855;DHT22;35752;52.164;21.244;2022-10-31T06:50:34;6.90;99.90
49855;DHT22;35752;52.164;21.244;2022-10-31T06:53:00;7.00;99.90
49855;DHT22;35752;52.164;21.244;2022-10-31T06:55:25;7.10;99.90
49855;DHT22;35752;52.164;21.244;2022-10-31T06:57:52;7.20;99.90
49855;DHT22;35752;52.164;21.244;2022-10-31T07:00:17;7.30;99.90
49855;DHT22;35752;52.164;21.244;2022-10-31T07:02:43;7.40;99.90
49855;DHT22;35752;52.164;21.244;2022-10-31T07:05:08;7.50;99.90
49855;DHT22;35752;52.164;21.244;2022-10-31T07:07:34;7.60;99.90
49855;DHT22;35752;52.164;21.244;2022-10-31T07:09:59;7.70;99.90
49855;DHT22;35752;52.164;21.244;2022-10-31T07:12:25;7.80;99.90
49855;DHT22;35752;52.164;21.244;2022-10-31T07:14:50;7.90;99.90
49855;DHT22;35752;52.164;21.244;2022-10-31T07:17:16;8.00;99.90
49855;DHT22;35752;52.164;21.244;2022-10-31T07:19:41;8.10;99.90
49855;DHT22;35752;52.164;21.244;2022-10-31T07:22:07;8.20;99.90
49855;DHT22;35752;52.164;21.244;2022-10-31T07:24:32;8.30;99.90
49855;DHT22;35752;52.164;21.244;2022-10-31T07:26:58;8.30;99.90
49855;DHT22;35752;52.164;21.244;2022-10-31T07:29:23;8.50;99.90
49855;DHT22;35752;52.164;21.244;2022-10-31T07:31:49;8.50;99.90
49855;DHT22;35752;52.164;21.244;2022-10-31T07:34:14;8.60;99.90
49855;DHT22;35752;52.164;21.244;2022-10-31T07:36:40;8.70;99.90
49855;DHT22;35752;52.164;21.244;2022-10-31T07:39:05;8.80;99.90
49855;DHT22;35752;52.164;21.244;2022-10-31T07:41:31;8.90;99.90
49855;DHT22;35752;52.164;21.244;2022-10-31T07:43:57;9.00;99.90
49855;DHT22;35752;52.164;21.244;2022-10-31T07:46:22;9.10;99.90
49855;DHT22;35752;52.164;21.244;2022-10-31T07:48:48;9.20;99.90
49855;DHT22;35752;52.164;21.244;2022-10-31T07:51:13;9.40;99.90
49855;DHT22;35752;52.164;21.244;2022-10-31T07:53:39;9.60;99.90
49855;DHT22;35752;52.164;21.244;2022-10-31T07:56:04;9.70;99.90
49855;DHT22;35752;52.164;21.244;2022-10-31T07:58:30;9.80;99.90
49855;DHT22;35752;52.164;21.244;2022-10-31T08:00:57;9.90;99.90
49855;DHT22;35752;52.164;21.244;2022-10-31T08:03:22;9.90;99.90
49855;DHT22;35752;52.164;21.244;2022-10-31T08:05:48;10.00;99.90
49855;DHT22;35752;52.164;21.244;2022-10-31T08:08:13;10.10;99.90
49855;DHT22;35752;52.164;21.244;2022-10-31T08:10:39;10.20;99.90
49855;DHT22;35752;52.164;21.244;2022-10-31T08:13:07;10.30;99.90
49855;DHT22;35752;52.164;21.244;2022-10-31T08:15:32;10.40;99.90
49855;DHT22;35752;52.164;21.244;2022-10-31T08:17:59;10.40;99.90
49855;DHT22;35752;52.164;21.244;2022-10-31T08:20:25;10.50;99.90
49855;DHT22;35752;52.164;21.244;2022-10-31T08:22:54;10.60;99.90
49855;DHT22;35752;52.164;21.244;2022-10-31T08:25:20;10.70;99.90
49855;DHT22;35752;52.164;21.244;2022-10-31T08:27:52;10.90;99.90
49855;DHT22;35752;52.164;21.244;2022-10-31T08:30:19;11.00;99.90
49855;DHT22;35752;52.164;21.244;2022-10-31T08:32:44;11.20;99.90
49855;DHT22;35752;52.164;21.244;2022-10-31T08:35:10;11.30;99.90
49855;DHT22;35752;52.164;21.244;2022-10-31T08:37:35;11.40;99.90
49855;DHT22;35752;52.164;21.244;2022-10-31T08:40:01;11.50;99.90
49855;DHT22;35752;52.164;21.244;2022-10-31T08:42:26;11.60;99.90
49855;DHT22;35752;52.164;21.244;2022-10-31T08:44:52;11.70;99.90
49855;DHT22;35752;52.164;21.244;2022-10-31T08:47:17;11.80;99.90
49855;DHT22;35752;52.164;21.244;2022-10-31T08:49:43;11.90;99.90
49855;DHT22;35752;52.164;21.244;2022-10-31T08:52:08;12.00;99.90
49855;DHT22;35752;52.164;21.244;2022-10-31T08:54:34;12.10;99.90
49855;DHT22;35752;52.164;21.244;2022-10-31T08:56:59;12.10;99.90
49855;DHT22;35752;52.164;21.244;2022-10-31T08:59:25;12.30;99.90
49855;DHT22;35752;52.164;21.244;2022-10-31T09:01:50;12.30;99.90
49855;DHT22;35752;52.164;21.244;2022-10-31T09:04:16;12.30;99.90
49855;DHT22;35752;52.164;21.244;2022-10-31T09:06:41;12.50;99.90
49855;DHT22;35752;52.164;21.244;2022-10-31T09:09:07;12.50;99.90
49855;DHT22;35752;52.164;21.244;2022-10-31T09:11:32;12.50;99.90
49855;DHT22;35752;52.164;21.244;2022-10-31T09:13:58;12.60;99.90
49855;DHT22;35752;52.164;21.244;2022-10-31T09:16:23;12.60;99.90
49855;DHT22;35752;52.164;21.244;2022-10-31T09:18:49;12.70;99.90
49855;DHT22;35752;52.164;21.244;2022-10-31T09:21:14;12.70;99.90
49855;DHT22;35752;52.164;21.244;2022-10-31T09:23:40;12.90;99.90
49855;DHT22;35752;52.164;21.244;2022-10-31T09:26:05;13.10;99.90
49855;DHT22;35752;52.164;21.244;2022-10-31T09:28:31;13.10;99.90
49855;DHT22;35752;52.164;21.244;2022-10-31T09:30:57;13.20;99.90
49855;DHT22;35752;52.164;21.244;2022-10-31T09:33:23;13.20;99.90
49855;DHT22;35752;52.164;21.244;2022-10-31T09:35:48;13.30;99.90
49855;DHT22;35752;52.164;21.244;2022-10-31T09:38:15;13.30;99.90
49855;DHT22;35752;52.164;21.244;2022-10-31T09:40:45;13.50;99.90
49855;DHT22;35752;52.164;21.244;2022-10-31T09:50:38;13.80;99.90
49855;DHT22;35752;52.164;21.244;2022-10-31T09:56:01;13.90;99.90
49855;DHT22;35752;52.164;21.244;2022-10-31T09:58:30;13.90;99.90
49855;DHT22;35752;52.164;21.244;2022-10-31T10:00:57;14.00;99.90
49855;DHT22;35752;52.164;21.244;2022-10-31T10:03:29;14.00;99.90
49855;DHT22;35752;52.164;21.244;2022-10-31T10:06:13;14.00;99.90
49855;DHT22;35752;52.164;21.244;2022-10-31T10:08:40;14.20;99.90
49855;DHT22;35752;52.164;21.244;2022-10-31T10:21:38;14.30;99.90
49855;DHT22;35752;52.164;21.244;2022-10-31T10:26:35;14.50;99.90
49855;DHT22;35752;52.164;21.244;2022-10-31T10:29:02;14.60;99.90
49855;DHT22;35752;52.164;21.244;2022-10-31T10:31:32;14.60;99.90
49855;DHT22;35752;52.164;21.244;2022-10-31T10:34:19;14.70;99.90
49855;DHT22;35752;52.164;21.244;2022-10-31T10:36:54;14.70;99.90
49855;DHT22;35752;52.164;21.244;2022-10-31T10:39:27;14.80;99.90
49855;DHT22;35752;52.164;21.244;2022-10-31T10:41:55;14.80;99.90
49855;DHT22;35752;52.164;21.244;2022-10-31T10:44:43;14.80;99.90
49855;DHT22;35752;52.164;21.244;2022-10-31T10:47:29;14.90;99.90
49855;DHT22;35752;52.164;21.244;2022-10-31T10:50:10;15.00;99.90
49855;DHT22;35752;52.164;21.244;2022-10-31T10:52:50;15.00;99.90
49855;DHT22;35752;52.164;21.244;2022-10-31T10:58:08;15.10;99.90
49855;DHT22;35752;52.164;21.244;2022-10-31T11:00:41;15.20;99.90
49855;DHT22;35752;52.164;21.244;2022-10-31T11:03:07;15.30;99.90
49855;DHT22;35752;52.164;21.244;2022-10-31T11:07:59;15.50;99.90
49855;DHT22;35752;52.164;21.244;2022-10-31T11:10:25;15.50;99.90
49855;DHT22;35752;52.164;21.244;2022-10-31T11:13:01;15.50;99.90
49855;DHT22;35752;52.164;21.244;2022-10-31T11:15:27;15.40;99.90
49855;DHT22;35752;52.164;21.244;2022-10-31T11:17:54;15.40;99.90
49855;DHT22;35752;52.164;21.244;2022-10-31T11:20:33;15.40;99.90
49855;DHT22;35752;52.164;21.244;2022-10-31T11:23:00;15.40;99.90
49855;DHT22;35752;52.164;21.244;2022-10-31T11:25:26;15.50;99.90
49855;DHT22;35752;52.164;21.244;2022-10-31T11:27:59;15.50;99.90
49855;DHT22;35752;52.164;21.244;2022-10-31T11:30:25;15.50;99.90
49855;DHT22;35752;52.164;21.244;2022-10-31T11:32:50;15.60;99.90
49855;DHT22;35752;52.164;21.244;2022-10-31T11:35:18;15.50;99.90
49855;DHT22;35752;52.164;21.244;2022-10-31T11:37:45;15.60;99.90
49855;DHT22;35752;52.164;21.244;2022-10-31T11:40:19;15.70;99.90
49855;DHT22;35752;52.164;21.244;2022-10-31T11:42:45;15.70;99.90
49855;DHT22;35752;52.164;21.244;2022-10-31T11:47:41;15.80;99.90
49855;DHT22;35752;52.164;21.244;2022-10-31T11:50:10;15.70;99.90
49855;DHT22;35752;52.164;21.244;2022-10-31T11:52:37;15.70;99.90
49855;DHT22;35752;52.164;21.244;2022-10-31T11:57:32;15.70;99.90
49855;DHT22;35752;52.164;21.244;2022-10-31T11:59:59;15.70;99.90
49855;DHT22;35752;52.164;21.244;2022-10-31T12:02:25;15.70;99.90
49855;DHT22;35752;52.164;21.244;2022-10-31T12:05:04;15.80;99.90
49855;DHT22;35752;52.164;21.244;2022-10-31T12:07:31;15.80;99.90
49855;DHT22;35752;52.164;21.244;2022-10-31T12:09:57;15.80;99.90
49855;DHT22;35752;52.164;21.244;2022-10-31T12:17:37;15.80;99.90
49855;DHT22;35752;52.164;21.244;2022-10-31T12:33:22;16.10;99.90
49855;DHT22;35752;52.164;21.244;2022-10-31T12:43:56;16.10;99.90
49855;DHT22;35752;52.164;21.244;2022-10-31T12:46:31;16.10;99.90
49855;DHT22;35752;52.164;21.244;2022-10-31T12:49:11;16.10;99.90
49855;DHT22;35752;52.164;21.244;2022-10-31T12:54:31;16.10;99.90
49855;DHT22;35752;52.164;21.244;2022-10-31T13:04:39;16.00;99.90
49855;DHT22;35752;52.164;21.244;2022-10-31T13:07:08;16.00;99.90
49855;DHT22;35752;52.164;21.244;2022-10-31T13:09:48;16.00;99.90
49855;DHT22;35752;52.164;21.244;2022-10-31T13:12:16;16.00;99.90
49855;DHT22;35752;52.164;21.244;2022-10-31T13:14:50;16.00;99.90
49855;DHT22;35752;52.164;21.244;2022-10-31T13:19:51;16.00;99.90
49855;DHT22;35752;52.164;21.244;2022-10-31T13:22:20;16.00;99.90
49855;DHT22;35752;52.164;21.244;2022-10-31T13:25:03;16.10;99.90
49855;DHT22;35752;52.164;21.244;2022-10-31T13:27:50;16.10;99.90
49855;DHT22;35752;52.164;21.244;2022-10-31T13:35:19;16.00;99.90
49855;DHT22;35752;52.164;21.244;2022-10-31T13:37:56;16.00;99.90
49855;DHT22;35752;52.164;21.244;2022-10-31T13:43:10;16.00;99.90
49855;DHT22;35752;52.164;21.244;2022-10-31T13:45:46;16.00;99.90
49855;DHT22;35752;52.164;21.244;2022-10-31T13:50:41;15.80;99.90
49855;DHT22;35752;52.164;21.244;2022-10-31T13:58:03;15.70;99.90
49855;DHT22;35752;52.164;21.244;2022-10-31T14:00:29;15.60;99.90
49855;DHT22;35752;52.164;21.244;2022-10-31T14:02:59;15.50;99.90
49855;DHT22;35752;52.164;21.244;2022-10-31T14:05:26;15.40;99.90
49855;DHT22;35752;52.164;21.244;2022-10-31T14:07:53;15.40;99.90
49855;DHT22;35752;52.164;21.244;2022-10-31T14:12:44;15.30;99.90
49855;DHT22;35752;52.164;21.244;2022-10-31T14:17:38;15.10;99.90
49855;DHT22;35752;52.164;21.244;2022-10-31T14:22:35;15.00;99.90
49855;DHT22;35752;52.164;21.244;2022-10-31T14:25:02;14.90;99.90
49855;DHT22;35752;52.164;21.244;2022-10-31T14:29:53;14.90;99.90
49855;DHT22;35752;52.164;21.244;2022-10-31T14:32:22;14.80;99.90
49855;DHT22;35752;52.164;21.244;2022-10-31T14:47:51;14.40;99.90
49855;DHT22;35752;52.164;21.244;2022-10-31T14:52:44;14.30;99.90
49855;DHT22;35752;52.164;21.244;2022-10-31T14:55:12;14.20;99.90
49855;DHT22;35752;52.164;21.244;2022-10-31T14:57:38;14.10;99.90
49855;DHT22;35752;52.164;21.244;2022-10-31T15:00:12;14.00;99.90
49855;DHT22;35752;52.164;21.244;2022-10-31T15:02:47;13.90;99.90
49855;DHT22;35752;52.164;21.244;2022-10-31T15:05:15;13.80;99.90
49855;DHT22;35752;52.164;21.244;2022-10-31T15:07:54;13.70;99.90
49855;DHT22;35752;52.164;21.244;2022-10-31T15:10:22;13.70;99.90
49855;DHT22;35752;52.164;21.244;2022-10-31T15:12:48;13.60;99.90
49855;DHT22;35752;52.164;21.244;2022-10-31T15:15:16;13.60;99.90
49855;DHT22;35752;52.164;21.244;2022-10-31T15:17:43;13.50;99.90
49855;DHT22;35752;52.164;21.244;2022-10-31T15:20:10;13.40;99.90
49855;DHT22;35752;52.164;21.244;2022-10-31T15:22:36;13.30;99.90
49855;DHT22;35752;52.164;21.244;2022-10-31T15:25:02;13.30;99.90
49855;DHT22;35752;52.164;21.244;2022-10-31T15:27:27;13.20;99.90
49855;DHT22;35752;52.164;21.244;2022-10-31T15:29:55;13.20;99.90
49855;DHT22;35752;52.164;21.244;2022-10-31T15:32:28;13.10;99.90
49855;DHT22;35752;52.164;21.244;2022-10-31T15:34:54;13.00;99.90
49855;DHT22;35752;52.164;21.244;2022-10-31T15:37:21;12.90;99.90
49855;DHT22;35752;52.164;21.244;2022-10-31T15:39:48;12.80;99.90
49855;DHT22;35752;52.164;21.244;2022-10-31T15:42:25;12.70;99.90
49855;DHT22;35752;52.164;21.244;2022-10-31T15:44:59;12.70;99.90
49855;DHT22;35752;52.164;21.244;2022-10-31T15:47:25;12.60;99.90
49855;DHT22;35752;52.164;21.244;2022-10-31T15:49:55;12.60;99.90
49855;DHT22;35752;52.164;21.244;2022-10-31T15:52:31;12.60;99.90
49855;DHT22;35752;52.164;21.244;2022-10-31T15:54:59;12.60;99.90
49855;DHT22;35752;52.164;21.244;2022-10-31T15:57:25;12.50;99.90
49855;DHT22;35752;52.164;21.244;2022-10-31T15:59:54;12.40;99.90
49855;DHT22;35752;52.164;21.244;2022-10-31T16:02:24;12.40;99.90
49855;DHT22;35752;52.164;21.244;2022-10-31T16:04:52;12.40;99.90
49855;DHT22;35752;52.164;21.244;2022-10-31T16:07:18;12.30;99.90
49855;DHT22;35752;52.164;21.244;2022-10-31T16:12:19;12.10;99.90
49855;DHT22;35752;52.164;21.244;2022-10-31T16:14:45;12.10;99.90
49855;DHT22;35752;52.164;21.244;2022-10-31T16:17:11;12.00;99.90
49855;DHT22;35752;52.164;21.244;2022-10-31T16:19:42;12.00;99.90
49855;DHT22;35752;52.164;21.244;2022-10-31T16:22:12;11.90;99.90
49855;DHT22;35752;52.164;21.244;2022-10-31T16:24:44;11.90;99.90
49855;DHT22;35752;52.164;21.244;2022-10-31T16:27:33;11.90;99.90
49855;DHT22;35752;52.164;21.244;2022-10-31T16:29:57;11.90;99.90
49855;DHT22;35752;52.164;21.244;2022-10-31T16:32:36;12.00;99.90
49855;DHT22;35752;52.164;21.244;2022-10-31T16:37:37;12.10;99.90
49855;DHT22;35752;52.164;21.244;2022-10-31T16:40:03;12.10;99.90
49855;DHT22;35752;52.164;21.244;2022-10-31T16:42:29;12.10;99.90
49855;DHT22;35752;52.164;21.244;2022-10-31T16:44:54;12.20;99.90
49855;DHT22;35752;52.164;21.244;2022-10-31T16:47:20;12.20;99.90
49855;DHT22;35752;52.164;21.244;2022-10-31T16:49:49;12.20;99.90
49855;DHT22;35752;52.164;21.244;2022-10-31T16:52:15;12.20;99.90
49855;DHT22;35752;52.164;21.244;2022-10-31T16:54:41;12.30;99.90
49855;DHT22;35752;52.164;21.244;2022-10-31T16:57:08;12.30;99.90
49855;DHT22;35752;52.164;21.244;2022-10-31T16:59:36;12.30;99.90
49855;DHT22;35752;52.164;21.244;2022-10-31T17:02:01;12.30;99.90
49855;DHT22;35752;52.164;21.244;2022-10-31T17:04:28;12.40;99.90
49855;DHT22;35752;52.164;21.244;2022-10-31T17:06:53;12.40;99.90
49855;DHT22;35752;52.164;21.244;2022-10-31T17:09:19;12.40;99.90
49855;DHT22;35752;52.164;21.244;2022-10-31T17:11:45;12.40;99.90
49855;DHT22;35752;52.164;21.244;2022-10-31T17:14:11;12.40;99.90
49855;DHT22;35752;52.164;21.244;2022-10-31T17:16:37;12.40;99.90
49855;DHT22;35752;52.164;21.244;2022-10-31T17:19:03;12.40;99.90
49855;DHT22;35752;52.164;21.244;2022-10-31T17:21:28;12.40;99.90
49855;DHT22;35752;52.164;21.244;2022-10-31T17:23:54;12.30;99.90
49855;DHT22;35752;52.164;21.244;2022-10-31T17:26:20;12.30;99.90
49855;DHT22;35752;52.164;21.244;2022-10-31T17:28:45;12.30;99.90
49855;DHT22;35752;52.164;21.244;2022-10-31T17:31:21;12.30;99.90
49855;DHT22;35752;52.164;21.244;2022-10-31T17:33:47;12.30;99.90
49855;DHT22;35752;52.164;21.244;2022-10-31T17:36:13;12.30;99.90
49855;DHT22;35752;52.164;21.244;2022-10-31T17:38:39;12.30;99.90
49855;DHT22;35752;52.164;21.244;2022-10-31T17:41:04;12.30;99.90
49855;DHT22;35752;52.164;21.244;2022-10-31T17:43:30;12.30;99.90
49855;DHT22;35752;52.164;21.244;2022-10-31T17:45:57;12.20;99.90
49855;DHT22;35752;52.164;21.244;2022-10-31T17:48:23;12.20;99.90
49855;DHT22;35752;52.164;21.244;2022-10-31T17:50:49;12.20;99.90
49855;DHT22;35752;52.164;21.244;2022-10-31T17:53:14;12.20;99.90
49855;DHT22;35752;52.164;21.244;2022-10-31T17:55:40;12.20;99.90
49855;DHT22;35752;52.164;21.244;2022-10-31T17:58:05;12.20;99.90
49855;DHT22;35752;52.164;21.244;2022-10-31T18:00:31;12.20;99.90